Time;durP1;ratioP1;P1;durP2;ratioP2;P2;SDS_P1;SDS_P2;PMS_P1;PMS_P2;Temp;Humidity;BMP_temperature;BMP_pressure;BME280_temperature;BME280_humidity;BME280_pressure;Samples;Min_cycle;Max_cycle;Signal;HPM_P1;HPM_P2
2023/06/17 00:02:04;;;;;;;18.93;15.27;;;;;;;;;;5009027;28;20199;-66
2023/06/17 00:04:31;;;;;;;18.27;15.97;;;;;;;;;;4991451;28;20200;-66
2023/06/17 00:07:00;;;;;;;20.00;15.30;;;;;;;;;;5008884;28;20287;-66
2023/06/17 00:09:27;;;;;;;15.97;14.27;;;;;;;;;;4991880;28;20274;-66
2023/06/17 00:11:56;;;;;;;21.23;16.93;;;;;;;;;;5009228;28;20188;-67
2023/06/17 00:14:23;;;;;;;18.40;15.43;;;;;;;;;;5009170;28;20195;-66
2023/06/17 00:16:50;;;;;;;19.13;15.93;;;;;;;;;;5008683;28;20231;-67
2023/06/17 00:19:17;;;;;;;18.07;14.97;;;;;;;;;;5009113;28;20250;-67
2023/06/17 00:21:44;;;;;;;18.30;15.13;;;;;;;;;;5009042;28;20191;-67
2023/06/17 00:24:13;;;;;;;17.77;14.10;;;;;;;;;;5008159;28;20188;-67
2023/06/17 00:26:40;;;;;;;16.37;14.17;;;;;;;;;;5009460;28;20275;-66
2023/06/17 00:29:07;;;;;;;15.70;13.87;;;;;;;;;;5008703;28;20192;-67
2023/06/17 00:31:33;;;;;;;18.23;14.60;;;;;;;;;;4991453;28;20654;-66
2023/06/17 00:34:00;;;;;;;19.47;14.67;;;;;;;;;;5008829;28;20663;-66
2023/06/17 00:36:44;;;;;;;16.77;13.93;;;;;;;;;;5008868;28;20179;-66
2023/06/17 00:39:13;;;;;;;14.70;13.00;;;;;;;;;;5007643;28;20267;-67
2023/06/17 00:41:57;;;;;;;13.73;12.17;;;;;;;;;;5008994;28;20259;-67
2023/06/17 00:44:24;;;;;;;15.43;12.83;;;;;;;;;;4991642;28;20781;-66
2023/06/17 00:46:51;;;;;;;14.87;13.27;;;;;;;;;;5008461;28;20276;-67
2023/06/17 00:49:18;;;;;;;22.20;15.07;;;;;;;;;;4975178;28;20856;-66
2023/06/17 00:51:44;;;;;;;17.20;15.20;;;;;;;;;;5006167;28;20631;-66
2023/06/17 00:54:26;;;;;;;18.33;15.87;;;;;;;;;;4988966;28;20176;-66
2023/06/17 00:56:53;;;;;;;18.23;14.10;;;;;;;;;;4972048;28;20180;-67
2023/06/17 00:59:19;;;;;;;18.87;16.70;;;;;;;;;;4965780;28;20243;-67
2023/06/17 01:01:46;;;;;;;19.07;16.37;;;;;;;;;;5008747;28;20303;-66
2023/06/17 01:04:15;;;;;;;18.60;16.10;;;;;;;;;;4990842;28;20652;-66
2023/06/17 01:07:12;;;;;;;17.90;14.13;;;;;;;;;;4993641;28;20168;-67
2023/06/17 01:09:43;;;;;;;18.50;15.30;;;;;;;;;;5008584;28;20191;-67
2023/06/17 01:12:10;;;;;;;17.20;14.97;;;;;;;;;;4991092;28;20227;-66
2023/06/17 01:14:40;;;;;;;18.67;15.63;;;;;;;;;;5008950;28;20226;-66
2023/06/17 01:17:10;;;;;;;19.80;16.40;;;;;;;;;;4981732;28;20286;-67
2023/06/17 01:19:54;;;;;;;19.90;15.63;;;;;;;;;;4991649;28;20560;-67
2023/06/17 01:22:20;;;;;;;19.70;16.43;;;;;;;;;;4975140;28;20216;-66
2023/06/17 01:24:49;;;;;;;18.93;15.23;;;;;;;;;;4975195;28;20223;-67
2023/06/17 01:27:15;;;;;;;18.20;15.97;;;;;;;;;;4992754;28;20477;-66
2023/06/17 01:29:48;;;;;;;15.30;13.00;;;;;;;;;;4975051;28;20970;-67
2023/06/17 01:32:15;;;;;;;17.50;15.03;;;;;;;;;;4992702;28;20218;-66
2023/06/17 01:34:50;;;;;;;17.60;14.57;;;;;;;;;;4974763;28;20220;-66
2023/06/17 01:37:28;;;;;;;15.83;13.80;;;;;;;;;;4959271;28;20740;-66
2023/06/17 01:39:56;;;;;;;19.17;14.33;;;;;;;;;;4975136;28;20618;-67
2023/06/17 02:18:27;;;;;;;30.93;21.23;;;;;;;;;;4991426;28;20231;-66
2023/06/17 02:20:57;;;;;;;34.57;23.40;;;;;;;;;;4992107;28;20297;-66
2023/06/17 02:23:24;;;;;;;32.20;23.27;;;;;;;;;;4973726;28;20617;-66
2023/06/17 02:25:51;;;;;;;28.87;19.37;;;;;;;;;;4991710;28;20243;-66
2023/06/17 02:28:20;;;;;;;29.70;22.03;;;;;;;;;;4982760;28;20193;-66
2023/06/17 02:30:51;;;;;;;25.63;18.50;;;;;;;;;;4971870;28;20221;-67
2023/06/17 02:33:53;;;;;;;27.20;20.23;;;;;;;;;;4972281;28;20172;-68
2023/06/17 02:36:31;;;;;;;29.63;19.57;;;;;;;;;;4972995;28;20197;-67
2023/06/17 02:39:09;;;;;;;29.00;20.17;;;;;;;;;;4958893;28;20193;-67
2023/06/17 02:41:46;;;;;;;25.53;19.53;;;;;;;;;;4976868;28;20196;-67
2023/06/17 02:44:32;;;;;;;30.77;20.73;;;;;;;;;;4992550;28;20196;-66
2023/06/17 02:46:59;;;;;;;30.93;20.83;;;;;;;;;;4992163;28;20259;-66
2023/06/17 02:49:26;;;;;;;34.77;21.37;;;;;;;;;;4974447;28;21011;-66
2023/06/17 02:51:53;;;;;;;27.60;20.10;;;;;;;;;;4988053;28;20749;-67
2023/06/17 02:54:20;;;;;;;26.17;18.27;;;;;;;;;;4939423;28;20696;-66
2023/06/17 02:56:47;;;;;;;29.37;18.90;;;;;;;;;;4989929;28;20901;-67
2023/06/17 02:59:14;;;;;;;28.63;19.00;;;;;;;;;;4974526;28;20200;-66
2023/06/17 03:01:41;;;;;;;24.47;17.80;;;;;;;;;;4974384;28;20197;-66
2023/06/17 03:04:10;;;;;;;22.60;16.37;;;;;;;;;;4992140;28;20611;-67
2023/06/17 03:06:40;;;;;;;25.50;17.43;;;;;;;;;;4974325;28;20197;-67
2023/06/17 03:09:09;;;;;;;21.87;16.97;;;;;;;;;;4974144;28;20197;-66
2023/06/17 03:11:36;;;;;;;21.67;17.10;;;;;;;;;;4974755;28;20236;-67
2023/06/17 03:14:04;;;;;;;20.93;16.57;;;;;;;;;;4973722;28;20296;-66
2023/06/17 03:16:33;;;;;;;23.13;16.23;;;;;;;;;;4974034;28;20319;-66
2023/06/17 03:19:02;;;;;;;22.67;17.00;;;;;;;;;;4974340;28;20568;-66
2023/06/17 03:21:32;;;;;;;27.20;16.80;;;;;;;;;;4973973;28;20244;-66
2023/06/17 03:24:00;;;;;;;19.80;15.97;;;;;;;;;;4974251;28;20223;-66
2023/06/17 03:26:29;;;;;;;21.07;16.13;;;;;;;;;;4974061;28;20255;-66
2023/06/17 03:28:56;;;;;;;21.17;16.53;;;;;;;;;;4973301;28;20255;-67
2023/06/17 03:31:23;;;;;;;20.40;15.83;;;;;;;;;;4991520;28;20560;-66
2023/06/17 03:33:52;;;;;;;18.50;14.70;;;;;;;;;;4957769;28;20200;-66
2023/06/17 03:36:19;;;;;;;21.87;18.53;;;;;;;;;;4973801;28;20686;-66
2023/06/17 03:42:12;;;;;;;18.57;15.60;;;;;;;;;;4960579;28;20585;-67
2023/06/17 03:44:55;;;;;;;19.17;14.97;;;;;;;;;;4973379;28;20220;-66
2023/06/17 03:47:22;;;;;;;19.30;15.90;;;;;;;;;;4991072;28;20197;-68
2023/06/17 03:49:52;;;;;;;17.90;15.10;;;;;;;;;;4990742;28;20196;-66
2023/06/17 03:52:29;;;;;;;18.63;15.57;;;;;;;;;;4983484;28;20211;-66
2023/06/17 03:55:03;;;;;;;18.70;15.33;;;;;;;;;;4971716;28;20537;-67
2023/06/17 03:57:35;;;;;;;19.43;15.83;;;;;;;;;;4969990;28;20265;-67
2023/06/17 04:00:06;;;;;;;22.50;15.83;;;;;;;;;;4971514;28;20208;-67
2023/06/17 04:02:44;;;;;;;20.80;15.20;;;;;;;;;;4970426;28;20199;-66
2023/06/17 04:05:32;;;;;;;25.00;14.93;;;;;;;;;;4973426;28;20207;-66
2023/06/17 04:08:02;;;;;;;21.47;15.70;;;;;;;;;;4973160;28;20684;-67
2023/06/17 04:10:32;;;;;;;19.77;16.03;;;;;;;;;;4972830;28;20213;-67
2023/06/17 04:13:01;;;;;;;24.00;16.70;;;;;;;;;;4990596;28;20526;-67
2023/06/17 04:15:29;;;;;;;20.03;16.10;;;;;;;;;;4990319;28;20197;-66
2023/06/17 04:18:14;;;;;;;19.83;15.77;;;;;;;;;;4960903;28;20229;-67
2023/06/17 04:20:44;;;;;;;20.53;17.13;;;;;;;;;;4937914;28;20204;-67
2023/06/17 04:23:12;;;;;;;22.93;18.70;;;;;;;;;;4974470;28;20200;-67
2023/06/17 04:25:40;;;;;;;20.73;17.27;;;;;;;;;;4969652;28;20649;-64
2023/06/17 04:28:08;;;;;;;21.33;17.37;;;;;;;;;;4970917;28;20202;-64
2023/06/17 04:30:37;;;;;;;22.27;18.33;;;;;;;;;;4990154;28;20608;-66
2023/06/17 04:33:06;;;;;;;23.80;19.70;;;;;;;;;;4963106;28;20196;-65
2023/06/17 04:35:33;;;;;;;25.80;19.13;;;;;;;;;;4975631;28;20279;-65
2023/06/17 04:38:02;;;;;;;20.50;16.93;;;;;;;;;;4983881;28;20205;-65
2023/06/17 04:40:31;;;;;;;18.70;16.70;;;;;;;;;;4984280;28;20343;-65
2023/06/17 04:43:01;;;;;;;21.47;16.13;;;;;;;;;;4984132;28;20586;-66
2023/06/17 04:45:30;;;;;;;22.23;18.13;;;;;;;;;;4952045;28;20282;-66
2023/06/17 04:48:03;;;;;;;22.03;18.83;;;;;;;;;;4957098;28;20629;-65
2023/06/17 04:50:31;;;;;;;19.93;17.83;;;;;;;;;;4976060;28;20199;-66
2023/06/17 04:53:03;;;;;;;22.23;17.83;;;;;;;;;;4967415;28;20288;-66
2023/06/17 04:55:35;;;;;;;21.43;18.87;;;;;;;;;;4968121;28;20204;-67
2023/06/17 04:58:03;;;;;;;22.97;19.63;;;;;;;;;;4957434;28;20624;-66
2023/06/17 05:00:37;;;;;;;23.40;20.50;;;;;;;;;;4962001;28;20204;-65
2023/06/17 05:03:06;;;;;;;21.83;18.33;;;;;;;;;;4956592;28;20196;-65
2023/06/17 05:05:33;;;;;;;18.93;16.27;;;;;;;;;;4971111;28;20197;-65
2023/06/17 05:08:00;;;;;;;21.00;16.93;;;;;;;;;;4980681;28;20192;-66
2023/06/17 05:10:27;;;;;;;21.77;17.33;;;;;;;;;;4970518;28;20197;-65
2023/06/17 05:12:54;;;;;;;21.43;17.47;;;;;;;;;;4965508;28;20201;-66
2023/06/17 05:15:21;;;;;;;19.70;15.73;;;;;;;;;;4965691;28;20329;-66
2023/06/17 05:17:49;;;;;;;19.63;16.10;;;;;;;;;;4999562;28;20224;-65
2023/06/17 05:20:33;;;;;;;19.63;15.53;;;;;;;;;;4985939;28;20181;-66
2023/06/17 05:23:00;;;;;;;20.10;14.30;;;;;;;;;;4999119;28;20193;-65
2023/06/17 05:25:27;;;;;;;21.00;14.23;;;;;;;;;;4988855;28;20234;-67
2023/06/17 05:27:54;;;;;;;19.40;13.30;;;;;;;;;;4988831;28;20197;-65
2023/06/17 05:30:25;;;;;;;18.30;13.63;;;;;;;;;;5004486;28;20290;-65
2023/06/17 05:32:55;;;;;;;19.57;13.63;;;;;;;;;;4972612;28;20912;-66
2023/06/17 05:35:22;;;;;;;18.80;12.13;;;;;;;;;;4988732;28;20201;-64
2023/06/17 05:37:49;;;;;;;20.33;12.57;;;;;;;;;;4973797;28;20287;-64
2023/06/17 05:40:15;;;;;;;20.67;12.90;;;;;;;;;;4992147;28;20192;-66
2023/06/17 05:42:43;;;;;;;21.80;12.87;;;;;;;;;;4986836;28;20208;-65
2023/06/17 05:45:11;;;;;;;16.77;11.80;;;;;;;;;;4989917;28;20287;-65
2023/06/17 05:47:38;;;;;;;18.90;12.17;;;;;;;;;;4991966;28;20722;-65
2023/06/17 05:50:05;;;;;;;15.90;11.67;;;;;;;;;;4977148;28;20260;-65
2023/06/17 05:52:34;;;;;;;18.60;11.13;;;;;;;;;;4987675;28;20213;-65
2023/06/17 05:55:18;;;;;;;13.73;10.93;;;;;;;;;;4972252;28;20209;-65
2023/06/17 05:57:45;;;;;;;15.50;11.53;;;;;;;;;;4989912;28;20192;-64
2023/06/17 06:00:15;;;;;;;16.77;12.27;;;;;;;;;;4990543;28;20679;-65
2023/06/17 06:02:43;;;;;;;21.03;13.50;;;;;;;;;;4991757;28;20222;-65
2023/06/17 06:05:11;;;;;;;18.60;12.27;;;;;;;;;;4992892;28;20675;-64
2023/06/17 06:07:38;;;;;;;18.77;12.60;;;;;;;;;;5012401;28;20525;-64
2023/06/17 06:10:06;;;;;;;16.23;11.50;;;;;;;;;;5012639;28;20211;-64
2023/06/17 06:12:40;;;;;;;12.07;10.53;;;;;;;;;;5003803;28;20603;-64
2023/06/17 06:15:08;;;;;;;12.00;9.90;;;;;;;;;;5004932;28;20262;-65
2023/06/17 06:17:35;;;;;;;10.30;9.23;;;;;;;;;;5007575;28;20293;-65
2023/06/17 06:20:03;;;;;;;10.53;9.07;;;;;;;;;;4993401;28;20652;-65
2023/06/17 06:22:30;;;;;;;10.43;9.37;;;;;;;;;;5012308;28;20239;-65
2023/06/17 06:24:58;;;;;;;11.33;9.40;;;;;;;;;;4981523;28;20197;-65
2023/06/17 06:27:25;;;;;;;9.43;8.53;;;;;;;;;;4991904;28;20529;-65
2023/06/17 06:29:53;;;;;;;13.73;9.73;;;;;;;;;;4995841;28;20753;-65
2023/06/17 06:32:20;;;;;;;14.43;9.43;;;;;;;;;;5008363;28;20683;-65
2023/06/17 06:38:05;;;;;;;11.10;8.10;;;;;;;;;;4992711;28;20177;-65
2023/06/17 06:40:32;;;;;;;12.30;7.67;;;;;;;;;;4989165;28;20222;-64
2023/06/17 06:43:00;;;;;;;8.87;7.50;;;;;;;;;;4995584;28;20223;-64
2023/06/17 06:45:38;;;;;;;8.67;7.40;;;;;;;;;;4991085;28;20207;-65
2023/06/17 06:48:22;;;;;;;7.90;6.60;;;;;;;;;;5000354;28;20257;-64
2023/06/17 06:50:49;;;;;;;7.17;6.47;;;;;;;;;;4999142;28;20188;-64
2023/06/17 06:53:19;;;;;;;6.07;5.53;;;;;;;;;;4974906;28;20200;-65
2023/06/17 06:55:46;;;;;;;6.47;5.87;;;;;;;;;;5013539;28;20548;-64
2023/06/17 06:58:13;;;;;;;9.63;6.00;;;;;;;;;;4982106;28;20668;-64
2023/06/17 07:00:42;;;;;;;6.70;5.97;;;;;;;;;;4986190;28;20860;-65
2023/06/17 07:03:28;;;;;;;6.33;5.73;;;;;;;;;;5003053;28;20200;-64
2023/06/17 07:05:56;;;;;;;6.40;5.67;;;;;;;;;;5004419;28;20271;-64
2023/06/17 07:08:26;;;;;;;7.27;5.30;;;;;;;;;;4997631;28;20585;-64
2023/06/17 07:10:53;;;;;;;7.67;6.23;;;;;;;;;;4995250;28;20192;-64
2023/06/17 07:13:23;;;;;;;8.63;6.27;;;;;;;;;;4999952;28;20212;-64
2023/06/17 07:15:51;;;;;;;9.07;6.70;;;;;;;;;;5000307;28;20201;-64
2023/06/17 07:18:19;;;;;;;7.30;6.23;;;;;;;;;;4974966;28;20247;-65
2023/06/17 07:20:46;;;;;;;7.70;6.10;;;;;;;;;;4976864;28;20248;-65
2023/06/17 07:23:13;;;;;;;7.13;6.43;;;;;;;;;;4981414;28;20236;-65
2023/06/17 07:25:40;;;;;;;13.57;7.13;;;;;;;;;;4963936;28;20216;-65
2023/06/17 07:28:25;;;;;;;8.87;6.97;;;;;;;;;;4979003;28;20200;-65
2023/06/17 07:30:52;;;;;;;10.47;6.90;;;;;;;;;;4980892;28;20194;-67
2023/06/17 07:33:36;;;;;;;10.50;6.60;;;;;;;;;;4976739;28;20220;-65
2023/06/17 07:36:03;;;;;;;12.20;6.83;;;;;;;;;;4955905;28;20215;-66
2023/06/17 07:38:32;;;;;;;9.50;6.50;;;;;;;;;;4967274;28;20196;-65
2023/06/17 07:41:00;;;;;;;8.80;6.67;;;;;;;;;;4968286;28;20247;-65
2023/06/17 07:43:27;;;;;;;7.10;6.40;;;;;;;;;;4978508;28;20279;-66
2023/06/17 07:45:54;;;;;;;6.67;5.97;;;;;;;;;;4977874;28;20189;-67
2023/06/17 07:48:21;;;;;;;12.30;6.03;;;;;;;;;;4975270;28;20189;-65
2023/06/17 07:50:48;;;;;;;8.23;6.30;;;;;;;;;;4968089;28;20198;-65
2023/06/17 07:53:15;;;;;;;8.80;6.57;;;;;;;;;;4974454;28;20221;-65
2023/06/17 07:55:42;;;;;;;11.47;6.70;;;;;;;;;;4970750;28;20636;-67
2023/06/17 07:58:09;;;;;;;8.20;7.40;;;;;;;;;;4976792;28;20270;-68
2023/06/17 08:00:37;;;;;;;7.80;7.10;;;;;;;;;;4970306;28;20229;-68
2023/06/17 08:03:04;;;;;;;8.47;7.57;;;;;;;;;;4981672;28;20197;-68
2023/06/17 08:05:31;;;;;;;9.40;7.47;;;;;;;;;;4976848;28;20245;-68
2023/06/17 08:08:16;;;;;;;8.20;7.40;;;;;;;;;;4976576;28;20211;-68
2023/06/17 08:10:43;;;;;;;8.13;7.33;;;;;;;;;;4977258;28;20225;-67
2023/06/17 08:13:28;;;;;;;8.67;7.83;;;;;;;;;;4978742;28;20549;-68
2023/06/17 08:15:55;;;;;;;10.67;8.33;;;;;;;;;;4974178;28;20700;-68
2023/06/17 08:18:22;;;;;;;11.90;7.90;;;;;;;;;;4969165;28;21053;-68
2023/06/17 08:20:49;;;;;;;8.97;7.53;;;;;;;;;;4990938;28;20200;-68
2023/06/17 08:23:16;;;;;;;8.23;7.33;;;;;;;;;;4972131;28;20225;-68
2023/06/17 08:25:44;;;;;;;11.10;7.07;;;;;;;;;;4985753;28;20276;-68
2023/06/17 08:28:11;;;;;;;12.90;7.70;;;;;;;;;;4977199;28;20268;-68
2023/06/17 08:30:39;;;;;;;8.00;7.27;;;;;;;;;;4982557;28;20188;-68
2023/06/17 08:33:06;;;;;;;8.87;7.17;;;;;;;;;;4964634;28;20233;-68
2023/06/17 08:35:40;;;;;;;9.73;6.77;;;;;;;;;;4981170;28;20193;-68
2023/06/17 08:38:15;;;;;;;7.83;7.13;;;;;;;;;;4973404;28;20221;-64
2023/06/17 08:40:43;;;;;;;13.30;7.37;;;;;;;;;;4981031;28;20231;-67
2023/06/17 08:43:10;;;;;;;7.57;6.77;;;;;;;;;;4972992;28;20278;-71
2023/06/17 08:45:37;;;;;;;12.20;7.13;;;;;;;;;;4969588;28;20194;-69
2023/06/17 08:48:06;;;;;;;7.97;6.57;;;;;;;;;;4960406;28;20954;-68
2023/06/17 08:50:50;;;;;;;6.83;6.20;;;;;;;;;;4982110;28;20177;-67
2023/06/17 08:53:17;;;;;;;11.20;6.87;;;;;;;;;;4975265;28;20240;-67
2023/06/17 08:55:44;;;;;;;9.53;6.43;;;;;;;;;;4970331;28;20204;-67
2023/06/17 08:58:12;;;;;;;7.67;6.30;;;;;;;;;;4969668;28;20202;-64
2023/06/17 09:00:40;;;;;;;9.07;6.63;;;;;;;;;;4958877;28;20260;-65
2023/06/17 09:03:09;;;;;;;13.80;7.17;;;;;;;;;;4969310;28;20661;-66
2023/06/17 09:05:36;;;;;;;12.50;7.17;;;;;;;;;;4970989;28;20189;-66
2023/06/17 09:08:03;;;;;;;11.50;6.60;;;;;;;;;;4970177;28;20309;-65
2023/06/17 09:10:46;;;;;;;7.23;6.40;;;;;;;;;;4965315;28;20203;-66
2023/06/17 09:13:28;;;;;;;7.33;6.57;;;;;;;;;;4968252;28;20296;-66
2023/06/17 09:15:55;;;;;;;10.30;7.57;;;;;;;;;;4968104;28;20232;-67
2023/06/17 09:18:22;;;;;;;8.40;6.80;;;;;;;;;;4988640;28;20754;-68
2023/06/17 09:20:52;;;;;;;7.40;6.57;;;;;;;;;;4972522;28;20188;-68
2023/06/17 09:23:19;;;;;;;8.10;6.43;;;;;;;;;;4989465;28;20200;-68
2023/06/17 09:25:46;;;;;;;6.97;6.37;;;;;;;;;;4972058;28;20589;-67
2023/06/17 09:28:15;;;;;;;7.33;6.63;;;;;;;;;;5008111;28;20189;-67
2023/06/17 09:30:43;;;;;;;6.57;5.93;;;;;;;;;;4991881;28;20206;-67
2023/06/17 09:33:18;;;;;;;8.37;6.30;;;;;;;;;;5008992;28;20263;-68
2023/06/17 09:35:47;;;;;;;7.37;5.90;;;;;;;;;;5009230;28;20219;-68
2023/06/17 09:38:19;;;;;;;6.63;5.93;;;;;;;;;;5009011;28;20207;-68
2023/06/17 09:40:56;;;;;;;6.10;5.50;;;;;;;;;;5012022;28;20196;-68
2023/06/17 09:43:27;;;;;;;7.73;5.97;;;;;;;;;;4994725;28;20192;-67
2023/06/17 09:45:55;;;;;;;9.30;5.57;;;;;;;;;;5012456;28;20727;-69
2023/06/17 09:48:29;;;;;;;7.27;5.70;;;;;;;;;;5012635;28;20184;-68
2023/06/17 09:50:56;;;;;;;6.60;5.90;;;;;;;;;;5012634;28;20598;-68
2023/06/17 09:53:24;;;;;;;8.57;6.53;;;;;;;;;;4997026;28;20213;-67
2023/06/17 09:55:55;;;;;;;7.17;5.67;;;;;;;;;;5007119;28;20192;-67
2023/06/17 09:58:22;;;;;;;6.07;5.43;;;;;;;;;;5012138;28;20223;-67
2023/06/17 10:00:51;;;;;;;6.00;5.33;;;;;;;;;;4999546;28;20232;-67
2023/06/17 10:03:18;;;;;;;7.77;4.80;;;;;;;;;;5012415;28;20196;-68
2023/06/17 10:05:47;;;;;;;15.33;5.40;;;;;;;;;;5012701;28;20184;-59
2023/06/17 10:08:14;;;;;;;7.67;5.30;;;;;;;;;;5012237;28;20197;-66
2023/06/17 10:10:40;;;;;;;7.87;5.13;;;;;;;;;;4993790;28;20191;-68
2023/06/17 10:13:08;;;;;;;7.57;5.40;;;;;;;;;;5011921;28;20664;-67
2023/06/17 10:15:34;;;;;;;8.43;5.50;;;;;;;;;;5012405;28;20188;-66
2023/06/17 10:18:01;;;;;;;32.00;8.17;;;;;;;;;;5011397;28;20254;-68
2023/06/17 10:20:32;;;;;;;12.67;5.90;;;;;;;;;;5012249;28;20239;-67
2023/06/17 10:23:02;;;;;;;6.27;5.23;;;;;;;;;;5011563;28;20192;-67
2023/06/17 10:25:29;;;;;;;8.37;5.73;;;;;;;;;;5012138;28;20204;-68
2023/06/17 10:27:56;;;;;;;6.23;5.63;;;;;;;;;;5011993;28;20177;-68
2023/06/17 10:30:26;;;;;;;6.00;5.10;;;;;;;;;;5006436;28;20671;-68
2023/06/17 10:32:57;;;;;;;7.67;5.10;;;;;;;;;;5011131;28;20664;-65
2023/06/17 10:35:35;;;;;;;6.07;4.70;;;;;;;;;;5011570;28;20346;-67
2023/06/17 10:38:02;;;;;;;12.27;5.37;;;;;;;;;;4990082;28;20204;-64
2023/06/17 10:40:35;;;;;;;11.10;5.03;;;;;;;;;;4980492;28;20626;-64
2023/06/17 10:43:02;;;;;;;6.10;4.53;;;;;;;;;;5011501;28;20309;-65
2023/06/17 10:45:33;;;;;;;7.17;4.70;;;;;;;;;;5010908;28;20261;-64
2023/06/17 10:48:16;;;;;;;5.57;4.60;;;;;;;;;;4993652;28;20300;-63
2023/06/17 10:50:46;;;;;;;6.17;4.47;;;;;;;;;;5009503;28;20272;-64
2023/06/17 10:53:16;;;;;;;5.23;4.70;;;;;;;;;;4995356;28;20220;-64
2023/06/17 10:55:43;;;;;;;7.67;5.43;;;;;;;;;;5004006;28;20188;-64
2023/06/17 10:58:10;;;;;;;6.80;4.90;;;;;;;;;;5010204;28;20207;-64
2023/06/17 11:00:37;;;;;;;5.63;4.60;;;;;;;;;;4991445;28;20240;-64
2023/06/17 11:03:29;;;;;;;6.00;4.90;;;;;;;;;;5007635;28;20176;-64
2023/06/17 11:05:58;;;;;;;5.17;4.37;;;;;;;;;;5006796;28;20187;-64
2023/06/17 11:08:25;;;;;;;8.20;5.33;;;;;;;;;;5010157;28;20246;-64
2023/06/17 11:10:51;;;;;;;4.63;4.23;;;;;;;;;;5010021;28;20197;-64
2023/06/17 11:13:21;;;;;;;7.43;4.50;;;;;;;;;;5010515;28;20216;-64
2023/06/17 11:15:54;;;;;;;5.90;4.83;;;;;;;;;;5009971;28;20223;-64
2023/06/17 11:18:22;;;;;;;5.30;4.73;;;;;;;;;;5004680;28;20237;-64
2023/06/17 11:20:49;;;;;;;4.83;4.43;;;;;;;;;;5009776;28;20188;-64
2023/06/17 11:23:17;;;;;;;5.07;4.57;;;;;;;;;;5009416;28;20192;-63
2023/06/17 11:25:44;;;;;;;5.00;4.50;;;;;;;;;;5009375;28;20197;-64
2023/06/17 11:28:11;;;;;;;6.20;4.60;;;;;;;;;;4992436;28;20202;-63
2023/06/17 11:30:44;;;;;;;10.83;4.80;;;;;;;;;;5006918;28;20204;-64
2023/06/17 11:33:11;;;;;;;10.03;4.93;;;;;;;;;;5008407;28;20251;-63
2023/06/17 11:35:38;;;;;;;5.40;4.83;;;;;;;;;;5010005;28;20192;-63
2023/06/17 11:38:05;;;;;;;4.60;4.20;;;;;;;;;;4991231;28;20552;-64
2023/06/17 11:40:32;;;;;;;5.03;4.47;;;;;;;;;;5009644;28;20214;-64
2023/06/17 11:42:59;;;;;;;4.40;4.00;;;;;;;;;;5006838;28;20251;-64
2023/06/17 11:45:28;;;;;;;4.90;4.00;;;;;;;;;;4989837;28;20193;-63
2023/06/17 11:47:54;;;;;;;5.33;4.33;;;;;;;;;;4990188;28;20189;-64
2023/06/17 11:50:27;;;;;;;5.63;4.53;;;;;;;;;;4989553;28;20204;-63
2023/06/17 11:52:57;;;;;;;6.30;4.30;;;;;;;;;;4989255;28;20247;-63
2023/06/17 11:55:34;;;;;;;5.33;4.10;;;;;;;;;;4993547;28;20189;-63
2023/06/17 11:58:03;;;;;;;5.77;4.50;;;;;;;;;;4990956;28;20473;-63
2023/06/17 12:00:35;;;;;;;7.87;4.63;;;;;;;;;;5007430;28;20270;-63
2023/06/17 12:03:05;;;;;;;4.50;4.10;;;;;;;;;;5004457;28;20266;-64
2023/06/17 12:05:31;;;;;;;6.30;4.17;;;;;;;;;;5010348;28;20196;-64
2023/06/17 12:08:01;;;;;;;4.80;3.97;;;;;;;;;;5010978;28;20195;-64
2023/06/17 12:10:28;;;;;;;3.90;3.60;;;;;;;;;;5010603;28;20242;-63
2023/06/17 12:12:58;;;;;;;4.77;4.13;;;;;;;;;;5009388;28;20196;-64
2023/06/17 12:15:26;;;;;;;5.53;4.67;;;;;;;;;;4993125;28;20192;-63
2023/06/17 12:18:02;;;;;;;4.93;4.50;;;;;;;;;;5010651;28;20734;-63
2023/06/17 12:20:48;;;;;;;7.27;4.57;;;;;;;;;;4982457;28;20253;-64
2023/06/17 12:23:15;;;;;;;6.07;4.40;;;;;;;;;;5011051;28;20196;-63
2023/06/17 12:25:42;;;;;;;6.33;4.10;;;;;;;;;;5010855;28;20660;-64
2023/06/17 12:28:09;;;;;;;5.17;4.43;;;;;;;;;;5010583;28;20264;-63
2023/06/17 12:30:36;;;;;;;4.97;4.30;;;;;;;;;;5009814;28;20559;-63
2023/06/17 12:33:04;;;;;;;5.63;4.90;;;;;;;;;;5010915;28;20698;-62
2023/06/17 12:35:32;;;;;;;5.17;4.30;;;;;;;;;;5010231;28;20196;-62
2023/06/17 12:37:59;;;;;;;5.40;4.50;;;;;;;;;;5010183;28;20261;-63
2023/06/17 12:40:27;;;;;;;5.13;4.30;;;;;;;;;;5010445;28;20234;-62
2023/06/17 12:42:55;;;;;;;5.60;5.00;;;;;;;;;;5010048;28;20200;-64
2023/06/17 12:45:22;;;;;;;6.43;5.83;;;;;;;;;;5010001;28;20195;-62
2023/06/17 12:47:49;;;;;;;8.63;5.30;;;;;;;;;;4995251;28;20739;-63
2023/06/17 12:50:16;;;;;;;8.57;5.70;;;;;;;;;;5001438;28;20189;-63
2023/06/17 12:52:44;;;;;;;7.13;5.83;;;;;;;;;;4994655;28;20723;-62
2023/06/17 12:55:11;;;;;;;7.63;6.13;;;;;;;;;;4997836;28;20203;-64
2023/06/17 12:57:38;;;;;;;8.13;6.43;;;;;;;;;;4997069;28;20209;-63
2023/06/17 13:00:06;;;;;;;7.27;6.10;;;;;;;;;;5009764;28;20187;-63
2023/06/17 13:02:54;;;;;;;7.60;6.80;;;;;;;;;;4996341;28;20826;-64
2023/06/17 13:05:22;;;;;;;7.60;6.80;;;;;;;;;;4996947;28;20184;-63
2023/06/17 13:07:50;;;;;;;11.00;7.40;;;;;;;;;;4998120;28;20197;-63
2023/06/17 13:10:17;;;;;;;6.47;5.87;;;;;;;;;;5008913;28;20287;-63
2023/06/17 13:12:44;;;;;;;7.93;7.13;;;;;;;;;;5010222;28;20213;-63
2023/06/17 13:15:30;;;;;;;6.53;5.83;;;;;;;;;;5012619;28;20189;-63
2023/06/17 13:17:57;;;;;;;17.60;8.90;;;;;;;;;;5014134;28;20239;-63
2023/06/17 13:20:24;;;;;;;6.90;6.30;;;;;;;;;;5013388;28;20196;-63
2023/06/17 13:22:51;;;;;;;7.10;6.40;;;;;;;;;;5004319;28;20231;-64
2023/06/17 13:25:18;;;;;;;8.73;6.10;;;;;;;;;;5010188;28;20202;-63
2023/06/17 13:27:45;;;;;;;8.23;6.40;;;;;;;;;;5013500;28;20283;-64
2023/06/17 13:30:12;;;;;;;6.73;6.03;;;;;;;;;;5014066;28;20190;-64
2023/06/17 13:32:40;;;;;;;7.97;7.07;;;;;;;;;;5013293;28;20196;-64
2023/06/17 13:35:07;;;;;;;6.93;6.20;;;;;;;;;;5013627;28;20286;-64
2023/06/17 13:37:34;;;;;;;6.77;5.30;;;;;;;;;;5007188;28;20209;-64
2023/06/17 13:40:02;;;;;;;7.40;6.63;;;;;;;;;;5005009;28;20200;-63
2023/06/17 13:42:31;;;;;;;6.60;6.00;;;;;;;;;;4999557;28;20186;-64
2023/06/17 13:44:59;;;;;;;6.13;5.53;;;;;;;;;;5004825;28;20201;-64
2023/06/17 13:47:26;;;;;;;6.03;5.43;;;;;;;;;;5013465;28;20263;-65
2023/06/17 13:49:53;;;;;;;6.20;5.60;;;;;;;;;;5013266;28;20245;-64
2023/06/17 13:52:20;;;;;;;7.10;5.70;;;;;;;;;;5011270;28;20189;-64
2023/06/17 13:54:47;;;;;;;9.07;6.13;;;;;;;;;;4994634;28;20257;-65
2023/06/17 13:57:17;;;;;;;8.47;6.50;;;;;;;;;;4993981;28;20287;-65
2023/06/17 13:59:44;;;;;;;10.13;6.20;;;;;;;;;;4990441;28;20196;-66
2023/06/17 14:02:11;;;;;;;6.10;5.50;;;;;;;;;;4993664;28;20231;-66
2023/06/17 14:04:38;;;;;;;8.67;5.93;;;;;;;;;;5013041;28;20291;-66
2023/06/17 14:07:08;;;;;;;5.97;5.47;;;;;;;;;;4982245;28;20242;-66
2023/06/17 14:09:36;;;;;;;6.17;5.57;;;;;;;;;;5012442;28;20230;-64
2023/06/17 14:12:03;;;;;;;7.27;5.97;;;;;;;;;;4999566;28;20276;-64
2023/06/17 14:14:30;;;;;;;7.80;5.90;;;;;;;;;;5012819;28;20215;-65
2023/06/17 14:16:59;;;;;;;6.57;5.87;;;;;;;;;;5012483;28;20267;-64
2023/06/17 14:19:29;;;;;;;7.50;6.47;;;;;;;;;;5012325;28;20298;-65
2023/06/17 14:22:05;;;;;;;6.67;6.07;;;;;;;;;;5012993;28;20576;-65
2023/06/17 14:24:38;;;;;;;7.73;6.50;;;;;;;;;;4995351;28;20551;-65
2023/06/17 14:27:38;;;;;;;6.30;5.30;;;;;;;;;;4997837;28;20621;-64
2023/06/17 14:30:22;;;;;;;9.13;5.80;;;;;;;;;;4977437;28;20192;-64
2023/06/17 14:32:51;;;;;;;7.17;6.17;;;;;;;;;;5012581;28;20189;-64
2023/06/17 14:35:19;;;;;;;7.13;5.40;;;;;;;;;;5012602;28;20203;-65
2023/06/17 14:37:46;;;;;;;6.30;5.60;;;;;;;;;;5013019;28;20207;-64
2023/06/17 14:40:13;;;;;;;7.37;5.77;;;;;;;;;;5012140;28;20212;-64
2023/06/17 14:42:40;;;;;;;7.13;5.67;;;;;;;;;;5010930;28;20241;-65
2023/06/17 14:45:08;;;;;;;8.77;6.00;;;;;;;;;;5009897;28;20196;-64
2023/06/17 14:47:35;;;;;;;7.07;6.30;;;;;;;;;;5010998;28;20192;-65
2023/06/17 14:50:03;;;;;;;6.40;5.80;;;;;;;;;;5010300;28;20239;-64
2023/06/17 14:52:30;;;;;;;6.93;5.87;;;;;;;;;;5001541;28;20204;-64
2023/06/17 14:54:58;;;;;;;6.87;6.00;;;;;;;;;;4998012;28;20215;-64
2023/06/17 14:57:26;;;;;;;7.40;6.10;;;;;;;;;;5010182;28;20266;-65
2023/06/17 14:59:54;;;;;;;8.00;6.70;;;;;;;;;;5010560;28;20185;-65
2023/06/17 15:02:27;;;;;;;10.10;7.43;;;;;;;;;;4997111;28;20191;-65
2023/06/17 15:05:12;;;;;;;9.70;8.70;;;;;;;;;;5010154;28;20191;-65
2023/06/17 15:07:38;;;;;;;8.83;8.03;;;;;;;;;;5009979;28;20191;-65
2023/06/17 15:10:06;;;;;;;8.20;7.40;;;;;;;;;;5009986;28;20596;-65
2023/06/17 15:12:33;;;;;;;7.83;7.13;;;;;;;;;;5010358;28;20717;-65
2023/06/17 15:15:01;;;;;;;7.87;6.70;;;;;;;;;;5009772;28;20925;-65
2023/06/17 15:17:45;;;;;;;9.03;8.13;;;;;;;;;;5009457;28;20231;-65
2023/06/17 15:20:12;;;;;;;10.10;7.63;;;;;;;;;;5010014;28;20222;-65
2023/06/17 15:22:57;;;;;;;8.73;6.80;;;;;;;;;;5009638;28;20180;-65
2023/06/17 15:25:25;;;;;;;8.10;7.30;;;;;;;;;;5009553;28;20196;-65
2023/06/17 15:27:57;;;;;;;7.70;6.90;;;;;;;;;;5009964;28;20211;-60
2023/06/17 15:30:25;;;;;;;9.37;7.50;;;;;;;;;;5009555;28;20198;-60